sensor_id;sensor_type;location;lat;lon;timestamp;P1;durP1;ratioP1;P2;durP2;ratioP2
33150;SDS011;19508;42.578;23.416;2023-05-06T00:00:29;18.83;;;10.20;;
33150;SDS011;19508;42.578;23.416;2023-05-06T00:02:55;17.67;;;9.82;;
33150;SDS011;19508;42.578;23.416;2023-05-06T00:05:20;15.73;;;10.02;;
33150;SDS011;19508;42.578;23.416;2023-05-06T00:07:46;22.15;;;11.20;;
33150;SDS011;19508;42.578;23.416;2023-05-06T00:10:11;18.60;;;11.40;;
33150;SDS011;19508;42.578;23.416;2023-05-06T00:12:37;21.85;;;11.52;;
33150;SDS011;19508;42.578;23.416;2023-05-06T00:15:03;27.48;;;11.70;;
33150;SDS011;19508;42.578;23.416;2023-05-06T00:17:28;21.75;;;11.65;;
33150;SDS011;19508;42.578;23.416;2023-05-06T00:19:54;18.95;;;10.55;;
33150;SDS011;19508;42.578;23.416;2023-05-06T00:22:20;21.27;;;9.85;;
33150;SDS011;19508;42.578;23.416;2023-05-06T00:24:46;22.25;;;11.02;;
33150;SDS011;19508;42.578;23.416;2023-05-06T00:27:11;15.60;;;10.30;;
33150;SDS011;19508;42.578;23.416;2023-05-06T00:29:37;18.00;;;10.48;;
33150;SDS011;19508;42.578;23.416;2023-05-06T00:32:02;15.25;;;9.43;;
33150;SDS011;19508;42.578;23.416;2023-05-06T00:34:28;17.15;;;11.75;;
33150;SDS011;19508;42.578;23.416;2023-05-06T00:36:54;25.42;;;13.55;;
33150;SDS011;19508;42.578;23.416;2023-05-06T00:39:19;22.95;;;12.27;;
33150;SDS011;19508;42.578;23.416;2023-05-06T00:41:45;22.10;;;11.40;;
33150;SDS011;19508;42.578;23.416;2023-05-06T00:44:11;28.60;;;11.38;;
33150;SDS011;19508;42.578;23.416;2023-05-06T00:46:36;23.02;;;10.15;;
33150;SDS011;19508;42.578;23.416;2023-05-06T00:49:02;16.08;;;9.80;;
33150;SDS011;19508;42.578;23.416;2023-05-06T00:51:28;18.83;;;10.32;;
33150;SDS011;19508;42.578;23.416;2023-05-06T00:53:54;19.17;;;9.60;;
33150;SDS011;19508;42.578;23.416;2023-05-06T00:56:19;15.70;;;9.48;;
33150;SDS011;19508;42.578;23.416;2023-05-06T00:58:44;28.30;;;10.43;;
33150;SDS011;19508;42.578;23.416;2023-05-06T01:01:10;16.95;;;9.70;;
33150;SDS011;19508;42.578;23.416;2023-05-06T01:03:36;19.88;;;9.98;;
33150;SDS011;19508;42.578;23.416;2023-05-06T01:08:53;14.68;;;8.93;;
33150;SDS011;19508;42.578;23.416;2023-05-06T01:11:28;16.80;;;9.88;;
33150;SDS011;19508;42.578;23.416;2023-05-06T01:14:05;20.27;;;8.85;;
33150;SDS011;19508;42.578;23.416;2023-05-06T01:16:37;20.13;;;9.70;;
33150;SDS011;19508;42.578;23.416;2023-05-06T01:19:05;22.45;;;9.65;;
33150;SDS011;19508;42.578;23.416;2023-05-06T01:21:34;18.52;;;9.80;;
33150;SDS011;19508;42.578;23.416;2023-05-06T01:24:00;17.70;;;9.10;;
33150;SDS011;19508;42.578;23.416;2023-05-06T01:26:26;30.52;;;12.05;;
33150;SDS011;19508;42.578;23.416;2023-05-06T01:28:55;88.40;;;31.83;;
33150;SDS011;19508;42.578;23.416;2023-05-06T01:31:25;52.58;;;20.70;;
33150;SDS011;19508;42.578;23.416;2023-05-06T01:39:01;30.98;;;14.82;;
33150;SDS011;19508;42.578;23.416;2023-05-06T01:41:33;34.90;;;16.42;;
33150;SDS011;19508;42.578;23.416;2023-05-06T01:44:02;20.08;;;10.32;;
33150;SDS011;19508;42.578;23.416;2023-05-06T01:46:29;16.60;;;9.40;;
33150;SDS011;19508;42.578;23.416;2023-05-06T01:48:56;15.02;;;8.93;;
33150;SDS011;19508;42.578;23.416;2023-05-06T01:51:25;17.77;;;10.63;;
33150;SDS011;19508;42.578;23.416;2023-05-06T01:53:50;14.90;;;9.23;;
33150;SDS011;19508;42.578;23.416;2023-05-06T01:56:16;15.73;;;8.63;;
33150;SDS011;19508;42.578;23.416;2023-05-06T01:58:41;14.98;;;8.57;;
33150;SDS011;19508;42.578;23.416;2023-05-06T02:01:07;15.60;;;9.70;;
33150;SDS011;19508;42.578;23.416;2023-05-06T02:03:32;17.77;;;10.02;;
33150;SDS011;19508;42.578;23.416;2023-05-06T02:05:57;19.67;;;10.23;;
33150;SDS011;19508;42.578;23.416;2023-05-06T02:08:23;22.75;;;10.48;;
33150;SDS011;19508;42.578;23.416;2023-05-06T02:10:48;18.23;;;10.52;;
33150;SDS011;19508;42.578;23.416;2023-05-06T02:13:15;20.75;;;10.02;;
33150;SDS011;19508;42.578;23.416;2023-05-06T02:15:42;16.92;;;10.07;;
33150;SDS011;19508;42.578;23.416;2023-05-06T02:18:07;20.00;;;11.02;;
33150;SDS011;19508;42.578;23.416;2023-05-06T02:20:33;19.50;;;10.35;;
33150;SDS011;19508;42.578;23.416;2023-05-06T02:22:58;22.58;;;11.68;;
33150;SDS011;19508;42.578;23.416;2023-05-06T02:25:23;19.15;;;9.85;;
33150;SDS011;19508;42.578;23.416;2023-05-06T02:27:49;19.23;;;9.68;;
33150;SDS011;19508;42.578;23.416;2023-05-06T02:30:14;18.05;;;9.93;;
33150;SDS011;19508;42.578;23.416;2023-05-06T02:32:40;17.25;;;9.25;;
33150;SDS011;19508;42.578;23.416;2023-05-06T02:35:05;17.02;;;9.55;;
33150;SDS011;19508;42.578;23.416;2023-05-06T02:37:31;19.55;;;9.25;;
33150;SDS011;19508;42.578;23.416;2023-05-06T02:39:57;19.88;;;9.80;;
33150;SDS011;19508;42.578;23.416;2023-05-06T02:42:22;17.95;;;10.25;;
33150;SDS011;19508;42.578;23.416;2023-05-06T02:44:47;21.48;;;10.20;;
33150;SDS011;19508;42.578;23.416;2023-05-06T02:47:13;19.10;;;10.20;;
33150;SDS011;19508;42.578;23.416;2023-05-06T02:49:38;22.27;;;9.80;;
33150;SDS011;19508;42.578;23.416;2023-05-06T02:52:03;16.58;;;9.77;;
33150;SDS011;19508;42.578;23.416;2023-05-06T02:54:29;16.38;;;10.00;;
33150;SDS011;19508;42.578;23.416;2023-05-06T02:56:54;18.55;;;9.80;;
33150;SDS011;19508;42.578;23.416;2023-05-06T02:59:20;20.52;;;10.35;;
33150;SDS011;19508;42.578;23.416;2023-05-06T03:01:46;22.33;;;10.88;;
33150;SDS011;19508;42.578;23.416;2023-05-06T03:04:11;21.90;;;10.75;;
33150;SDS011;19508;42.578;23.416;2023-05-06T03:06:37;18.92;;;10.52;;
33150;SDS011;19508;42.578;23.416;2023-05-06T03:09:02;18.60;;;9.23;;
33150;SDS011;19508;42.578;23.416;2023-05-06T03:11:29;24.98;;;12.05;;
33150;SDS011;19508;42.578;23.416;2023-05-06T03:13:55;20.90;;;10.30;;
33150;SDS011;19508;42.578;23.416;2023-05-06T03:16:22;21.50;;;10.95;;
33150;SDS011;19508;42.578;23.416;2023-05-06T03:18:47;20.67;;;10.43;;
33150;SDS011;19508;42.578;23.416;2023-05-06T03:21:12;20.92;;;10.82;;
33150;SDS011;19508;42.578;23.416;2023-05-06T03:23:38;19.10;;;12.80;;
33150;SDS011;19508;42.578;23.416;2023-05-06T03:26:03;19.23;;;11.35;;
33150;SDS011;19508;42.578;23.416;2023-05-06T03:28:29;21.35;;;12.02;;
33150;SDS011;19508;42.578;23.416;2023-05-06T03:30:54;24.75;;;12.23;;
33150;SDS011;19508;42.578;23.416;2023-05-06T03:33:20;21.35;;;11.65;;
33150;SDS011;19508;42.578;23.416;2023-05-06T03:35:45;24.58;;;12.68;;
33150;SDS011;19508;42.578;23.416;2023-05-06T03:38:11;19.17;;;11.70;;
33150;SDS011;19508;42.578;23.416;2023-05-06T03:40:36;29.85;;;12.15;;
33150;SDS011;19508;42.578;23.416;2023-05-06T03:43:02;20.10;;;12.48;;
33150;SDS011;19508;42.578;23.416;2023-05-06T03:45:27;24.35;;;12.88;;
33150;SDS011;19508;42.578;23.416;2023-05-06T03:47:52;30.73;;;16.48;;
33150;SDS011;19508;42.578;23.416;2023-05-06T03:50:18;52.53;;;24.02;;
33150;SDS011;19508;42.578;23.416;2023-05-06T03:52:44;29.10;;;15.43;;
33150;SDS011;19508;42.578;23.416;2023-05-06T03:55:10;26.25;;;14.45;;
33150;SDS011;19508;42.578;23.416;2023-05-06T03:57:35;31.70;;;15.88;;
33150;SDS011;19508;42.578;23.416;2023-05-06T04:00:01;35.88;;;17.55;;
33150;SDS011;19508;42.578;23.416;2023-05-06T04:02:26;41.00;;;19.60;;
33150;SDS011;19508;42.578;23.416;2023-05-06T04:04:53;39.13;;;18.95;;
33150;SDS011;19508;42.578;23.416;2023-05-06T04:07:18;35.80;;;19.42;;
33150;SDS011;19508;42.578;23.416;2023-05-06T04:09:44;26.20;;;15.18;;
33150;SDS011;19508;42.578;23.416;2023-05-06T04:12:09;25.88;;;14.45;;
33150;SDS011;19508;42.578;23.416;2023-05-06T04:14:35;22.77;;;13.18;;
33150;SDS011;19508;42.578;23.416;2023-05-06T04:17:00;22.65;;;12.85;;
33150;SDS011;19508;42.578;23.416;2023-05-06T04:19:25;25.88;;;13.73;;
33150;SDS011;19508;42.578;23.416;2023-05-06T04:21:51;19.52;;;11.82;;
33150;SDS011;19508;42.578;23.416;2023-05-06T04:24:16;21.73;;;11.50;;
33150;SDS011;19508;42.578;23.416;2023-05-06T04:26:42;32.55;;;16.33;;
33150;SDS011;19508;42.578;23.416;2023-05-06T04:29:08;27.95;;;16.27;;
33150;SDS011;19508;42.578;23.416;2023-05-06T04:31:33;23.13;;;12.75;;
33150;SDS011;19508;42.578;23.416;2023-05-06T04:34:00;18.25;;;11.70;;
33150;SDS011;19508;42.578;23.416;2023-05-06T04:36:26;18.52;;;11.05;;
33150;SDS011;19508;42.578;23.416;2023-05-06T04:38:52;18.23;;;11.70;;
33150;SDS011;19508;42.578;23.416;2023-05-06T04:41:18;30.15;;;16.35;;
33150;SDS011;19508;42.578;23.416;2023-05-06T04:43:44;31.38;;;16.42;;
33150;SDS011;19508;42.578;23.416;2023-05-06T04:46:10;25.02;;;13.25;;
33150;SDS011;19508;42.578;23.416;2023-05-06T04:48:35;31.15;;;16.67;;
33150;SDS011;19508;42.578;23.416;2023-05-06T04:51:01;32.60;;;17.63;;
33150;SDS011;19508;42.578;23.416;2023-05-06T04:53:29;37.67;;;20.33;;
33150;SDS011;19508;42.578;23.416;2023-05-06T04:55:54;33.97;;;17.73;;
33150;SDS011;19508;42.578;23.416;2023-05-06T04:58:20;31.35;;;16.80;;
33150;SDS011;19508;42.578;23.416;2023-05-06T05:00:45;25.33;;;13.07;;
33150;SDS011;19508;42.578;23.416;2023-05-06T05:03:11;10.48;;;6.55;;
33150;SDS011;19508;42.578;23.416;2023-05-06T05:05:36;14.52;;;5.50;;
33150;SDS011;19508;42.578;23.416;2023-05-06T05:08:01;10.73;;;6.38;;
33150;SDS011;19508;42.578;23.416;2023-05-06T05:10:27;7.55;;;5.70;;
33150;SDS011;19508;42.578;23.416;2023-05-06T05:12:52;9.88;;;6.00;;
33150;SDS011;19508;42.578;23.416;2023-05-06T05:15:18;10.75;;;7.40;;
33150;SDS011;19508;42.578;23.416;2023-05-06T05:17:45;7.20;;;5.35;;
33150;SDS011;19508;42.578;23.416;2023-05-06T05:20:10;13.45;;;9.10;;
33150;SDS011;19508;42.578;23.416;2023-05-06T05:22:36;17.52;;;9.00;;
33150;SDS011;19508;42.578;23.416;2023-05-06T05:25:01;35.63;;;19.15;;
33150;SDS011;19508;42.578;23.416;2023-05-06T05:27:27;22.52;;;12.93;;
33150;SDS011;19508;42.578;23.416;2023-05-06T05:29:53;25.55;;;11.20;;
33150;SDS011;19508;42.578;23.416;2023-05-06T05:32:18;19.55;;;10.20;;
33150;SDS011;19508;42.578;23.416;2023-05-06T05:34:45;28.17;;;8.95;;
33150;SDS011;19508;42.578;23.416;2023-05-06T05:37:11;20.52;;;9.65;;
33150;SDS011;19508;42.578;23.416;2023-05-06T05:39:36;19.23;;;11.88;;
33150;SDS011;19508;42.578;23.416;2023-05-06T05:42:01;24.73;;;9.05;;
33150;SDS011;19508;42.578;23.416;2023-05-06T05:44:27;9.73;;;6.43;;
33150;SDS011;19508;42.578;23.416;2023-05-06T05:46:53;10.85;;;6.35;;
33150;SDS011;19508;42.578;23.416;2023-05-06T05:49:18;19.05;;;8.80;;
33150;SDS011;19508;42.578;23.416;2023-05-06T05:51:44;19.65;;;10.63;;
33150;SDS011;19508;42.578;23.416;2023-05-06T05:54:09;20.20;;;9.85;;
33150;SDS011;19508;42.578;23.416;2023-05-06T05:56:35;25.15;;;16.10;;
33150;SDS011;19508;42.578;23.416;2023-05-06T05:59:00;14.10;;;8.57;;
33150;SDS011;19508;42.578;23.416;2023-05-06T06:01:25;36.70;;;22.33;;
33150;SDS011;19508;42.578;23.416;2023-05-06T06:03:51;19.88;;;12.18;;
33150;SDS011;19508;42.578;23.416;2023-05-06T06:06:18;20.02;;;12.45;;
33150;SDS011;19508;42.578;23.416;2023-05-06T06:08:43;32.13;;;16.75;;
33150;SDS011;19508;42.578;23.416;2023-05-06T06:11:09;14.85;;;8.60;;
33150;SDS011;19508;42.578;23.416;2023-05-06T06:13:35;15.70;;;7.65;;
33150;SDS011;19508;42.578;23.416;2023-05-06T06:16:00;13.50;;;8.63;;
33150;SDS011;19508;42.578;23.416;2023-05-06T06:18:26;18.30;;;8.80;;
33150;SDS011;19508;42.578;23.416;2023-05-06T06:20:51;40.08;;;25.98;;
33150;SDS011;19508;42.578;23.416;2023-05-06T06:23:17;19.27;;;10.27;;
33150;SDS011;19508;42.578;23.416;2023-05-06T06:25:42;15.00;;;8.80;;
33150;SDS011;19508;42.578;23.416;2023-05-06T06:28:07;10.73;;;7.28;;
33150;SDS011;19508;42.578;23.416;2023-05-06T06:30:33;9.43;;;6.25;;
33150;SDS011;19508;42.578;23.416;2023-05-06T06:32:59;10.05;;;6.05;;
33150;SDS011;19508;42.578;23.416;2023-05-06T06:35:25;13.20;;;7.38;;
33150;SDS011;19508;42.578;23.416;2023-05-06T06:37:51;16.98;;;7.80;;
33150;SDS011;19508;42.578;23.416;2023-05-06T06:40:17;11.68;;;7.07;;
33150;SDS011;19508;42.578;23.416;2023-05-06T06:42:42;16.58;;;8.52;;
33150;SDS011;19508;42.578;23.416;2023-05-06T06:45:08;11.73;;;7.93;;
33150;SDS011;19508;42.578;23.416;2023-05-06T06:47:34;10.55;;;6.03;;
33150;SDS011;19508;42.578;23.416;2023-05-06T06:50:00;11.65;;;7.70;;
33150;SDS011;19508;42.578;23.416;2023-05-06T06:52:25;13.00;;;8.82;;
33150;SDS011;19508;42.578;23.416;2023-05-06T06:54:51;11.38;;;7.35;;
33150;SDS011;19508;42.578;23.416;2023-05-06T06:57:17;13.25;;;7.10;;
33150;SDS011;19508;42.578;23.416;2023-05-06T06:59:42;9.98;;;7.00;;
33150;SDS011;19508;42.578;23.416;2023-05-06T07:02:08;12.27;;;8.15;;
33150;SDS011;19508;42.578;23.416;2023-05-06T07:04:34;11.63;;;8.02;;
33150;SDS011;19508;42.578;23.416;2023-05-06T07:06:59;13.18;;;7.20;;
33150;SDS011;19508;42.578;23.416;2023-05-06T07:09:24;10.18;;;5.93;;
33150;SDS011;19508;42.578;23.416;2023-05-06T07:11:50;10.90;;;5.78;;
33150;SDS011;19508;42.578;23.416;2023-05-06T07:14:15;10.23;;;5.40;;
33150;SDS011;19508;42.578;23.416;2023-05-06T07:16:41;10.10;;;6.65;;
33150;SDS011;19508;42.578;23.416;2023-05-06T07:19:06;19.67;;;9.55;;
33150;SDS011;19508;42.578;23.416;2023-05-06T07:21:31;12.63;;;8.20;;
33150;SDS011;19508;42.578;23.416;2023-05-06T07:23:57;19.02;;;8.80;;
33150;SDS011;19508;42.578;23.416;2023-05-06T07:26:23;13.57;;;6.80;;
33150;SDS011;19508;42.578;23.416;2023-05-06T07:28:48;11.32;;;6.10;;
33150;SDS011;19508;42.578;23.416;2023-05-06T07:31:14;12.90;;;5.65;;
33150;SDS011;19508;42.578;23.416;2023-05-06T07:33:42;10.23;;;5.45;;
33150;SDS011;19508;42.578;23.416;2023-05-06T07:36:08;10.73;;;5.53;;
33150;SDS011;19508;42.578;23.416;2023-05-06T07:38:33;10.07;;;5.55;;
33150;SDS011;19508;42.578;23.416;2023-05-06T07:40:59;7.32;;;4.72;;
33150;SDS011;19508;42.578;23.416;2023-05-06T07:43:24;9.63;;;5.20;;
33150;SDS011;19508;42.578;23.416;2023-05-06T07:45:49;8.57;;;4.95;;
33150;SDS011;19508;42.578;23.416;2023-05-06T07:48:15;10.70;;;5.05;;
33150;SDS011;19508;42.578;23.416;2023-05-06T07:50:40;6.35;;;5.07;;
33150;SDS011;19508;42.578;23.416;2023-05-06T07:53:06;10.20;;;5.22;;
33150;SDS011;19508;42.578;23.416;2023-05-06T07:55:31;6.63;;;4.70;;
33150;SDS011;19508;42.578;23.416;2023-05-06T07:57:56;8.55;;;4.80;;
33150;SDS011;19508;42.578;23.416;2023-05-06T08:00:22;7.13;;;3.92;;
33150;SDS011;19508;42.578;23.416;2023-05-06T08:02:47;10.85;;;4.63;;
33150;SDS011;19508;42.578;23.416;2023-05-06T08:05:13;6.38;;;4.57;;
33150;SDS011;19508;42.578;23.416;2023-05-06T08:07:39;7.35;;;4.03;;
33150;SDS011;19508;42.578;23.416;2023-05-06T08:10:05;8.57;;;4.07;;
33150;SDS011;19508;42.578;23.416;2023-05-06T08:12:33;6.90;;;3.53;;
33150;SDS011;19508;42.578;23.416;2023-05-06T08:14:59;6.70;;;4.35;;
33150;SDS011;19508;42.578;23.416;2023-05-06T08:17:24;9.60;;;3.85;;
33150;SDS011;19508;42.578;23.416;2023-05-06T08:19:50;11.52;;;5.07;;
33150;SDS011;19508;42.578;23.416;2023-05-06T08:22:15;8.73;;;4.40;;
33150;SDS011;19508;42.578;23.416;2023-05-06T08:24:41;12.07;;;5.72;;
33150;SDS011;19508;42.578;23.416;2023-05-06T08:27:07;14.00;;;6.00;;
33150;SDS011;19508;42.578;23.416;2023-05-06T08:29:32;8.57;;;4.80;;
33150;SDS011;19508;42.578;23.416;2023-05-06T08:31:58;7.15;;;4.10;;
33150;SDS011;19508;42.578;23.416;2023-05-06T08:34:23;11.32;;;4.70;;
33150;SDS011;19508;42.578;23.416;2023-05-06T08:36:48;8.95;;;4.78;;
33150;SDS011;19508;42.578;23.416;2023-05-06T08:39:14;6.65;;;4.25;;
33150;SDS011;19508;42.578;23.416;2023-05-06T08:41:39;10.48;;;4.57;;
33150;SDS011;19508;42.578;23.416;2023-05-06T08:44:08;7.78;;;4.22;;
33150;SDS011;19508;42.578;23.416;2023-05-06T08:46:34;8.07;;;4.47;;
33150;SDS011;19508;42.578;23.416;2023-05-06T08:49:00;6.18;;;3.38;;
33150;SDS011;19508;42.578;23.416;2023-05-06T08:51:26;7.00;;;3.72;;
33150;SDS011;19508;42.578;23.416;2023-05-06T08:53:54;12.05;;;4.25;;
33150;SDS011;19508;42.578;23.416;2023-05-06T08:56:21;9.13;;;4.20;;
33150;SDS011;19508;42.578;23.416;2023-05-06T08:58:48;9.80;;;4.32;;
33150;SDS011;19508;42.578;23.416;2023-05-06T09:01:16;6.13;;;3.90;;
33150;SDS011;19508;42.578;23.416;2023-05-06T09:03:41;10.93;;;4.82;;
33150;SDS011;19508;42.578;23.416;2023-05-06T09:06:08;23.45;;;9.60;;
33150;SDS011;19508;42.578;23.416;2023-05-06T09:08:34;11.38;;;4.55;;
33150;SDS011;19508;42.578;23.416;2023-05-06T09:11:00;12.77;;;4.43;;
33150;SDS011;19508;42.578;23.416;2023-05-06T09:13:25;8.63;;;4.30;;
33150;SDS011;19508;42.578;23.416;2023-05-06T09:15:52;9.88;;;4.57;;
33150;SDS011;19508;42.578;23.416;2023-05-06T09:18:19;8.32;;;4.70;;
33150;SDS011;19508;42.578;23.416;2023-05-06T09:20:45;8.23;;;4.75;;
33150;SDS011;19508;42.578;23.416;2023-05-06T09:23:13;9.07;;;4.95;;
33150;SDS011;19508;42.578;23.416;2023-05-06T09:25:41;7.90;;;4.55;;
33150;SDS011;19508;42.578;23.416;2023-05-06T09:28:09;10.98;;;5.32;;
33150;SDS011;19508;42.578;23.416;2023-05-06T09:30:40;9.52;;;6.03;;
33150;SDS011;19508;42.578;23.416;2023-05-06T09:33:06;14.47;;;6.50;;
33150;SDS011;19508;42.578;23.416;2023-05-06T09:35:36;8.98;;;4.88;;
33150;SDS011;19508;42.578;23.416;2023-05-06T09:38:06;9.55;;;4.70;;
33150;SDS011;19508;42.578;23.416;2023-05-06T09:40:36;8.10;;;5.63;;
33150;SDS011;19508;42.578;23.416;2023-05-06T09:43:02;8.57;;;5.40;;
33150;SDS011;19508;42.578;23.416;2023-05-06T09:45:28;10.40;;;5.30;;
33150;SDS011;19508;42.578;23.416;2023-05-06T09:47:55;8.60;;;5.22;;
33150;SDS011;19508;42.578;23.416;2023-05-06T09:50:21;15.13;;;5.30;;
33150;SDS011;19508;42.578;23.416;2023-05-06T09:52:48;7.20;;;4.60;;
33150;SDS011;19508;42.578;23.416;2023-05-06T09:55:15;10.93;;;4.75;;
33150;SDS011;19508;42.578;23.416;2023-05-06T09:57:43;12.60;;;4.80;;
33150;SDS011;19508;42.578;23.416;2023-05-06T10:00:09;12.57;;;5.30;;
33150;SDS011;19508;42.578;23.416;2023-05-06T10:02:39;7.75;;;5.07;;
33150;SDS011;19508;42.578;23.416;2023-05-06T10:05:05;6.80;;;4.43;;
33150;SDS011;19508;42.578;23.416;2023-05-06T10:07:33;15.18;;;4.68;;
33150;SDS011;19508;42.578;23.416;2023-05-06T10:09:59;10.68;;;4.50;;
33150;SDS011;19508;42.578;23.416;2023-05-06T10:12:26;12.80;;;4.90;;
33150;SDS011;19508;42.578;23.416;2023-05-06T10:14:53;15.20;;;4.78;;
33150;SDS011;19508;42.578;23.416;2023-05-06T10:17:18;10.13;;;5.07;;
33150;SDS011;19508;42.578;23.416;2023-05-06T10:19:49;19.47;;;9.40;;
33150;SDS011;19508;42.578;23.416;2023-05-06T10:25:13;14.30;;;4.80;;
33150;SDS011;19508;42.578;23.416;2023-05-06T10:27:47;8.23;;;4.13;;
33150;SDS011;19508;42.578;23.416;2023-05-06T10:30:13;7.00;;;4.18;;
33150;SDS011;19508;42.578;23.416;2023-05-06T10:32:41;10.05;;;3.60;;
33150;SDS011;19508;42.578;23.416;2023-05-06T10:38:10;7.78;;;3.50;;
33150;SDS011;19508;42.578;23.416;2023-05-06T10:40:40;7.32;;;3.47;;
33150;SDS011;19508;42.578;23.416;2023-05-06T10:48:30;9.32;;;4.72;;
33150;SDS011;19508;42.578;23.416;2023-05-06T10:51:38;15.02;;;6.03;;
33150;SDS011;19508;42.578;23.416;2023-05-06T10:56:19;6.32;;;3.08;;
33150;SDS011;19508;42.578;23.416;2023-05-06T10:58:46;5.93;;;2.90;;
33150;SDS011;19508;42.578;23.416;2023-05-06T11:01:12;4.78;;;3.40;;
33150;SDS011;19508;42.578;23.416;2023-05-06T11:03:40;13.02;;;3.15;;
33150;SDS011;19508;42.578;23.416;2023-05-06T11:06:07;4.93;;;2.90;;
33150;SDS011;19508;42.578;23.416;2023-05-06T11:08:33;5.25;;;3.00;;
33150;SDS011;19508;42.578;23.416;2023-05-06T11:10:58;10.60;;;3.00;;
33150;SDS011;19508;42.578;23.416;2023-05-06T11:13:27;6.30;;;3.00;;
33150;SDS011;19508;42.578;23.416;2023-05-06T11:15:54;7.63;;;3.00;;
33150;SDS011;19508;42.578;23.416;2023-05-06T11:26:11;9.10;;;2.83;;
33150;SDS011;19508;42.578;23.416;2023-05-06T11:28:38;11.45;;;3.83;;
33150;SDS011;19508;42.578;23.416;2023-05-06T11:31:06;5.10;;;3.10;;
33150;SDS011;19508;42.578;23.416;2023-05-06T11:33:34;17.42;;;2.92;;
33150;SDS011;19508;42.578;23.416;2023-05-06T11:36:01;6.90;;;3.58;;
33150;SDS011;19508;42.578;23.416;2023-05-06T11:38:43;11.27;;;3.10;;
33150;SDS011;19508;42.578;23.416;2023-05-06T11:41:14;6.55;;;3.13;;
33150;SDS011;19508;42.578;23.416;2023-05-06T11:43:44;7.82;;;3.92;;
33150;SDS011;19508;42.578;23.416;2023-05-06T11:46:10;6.67;;;2.43;;
33150;SDS011;19508;42.578;23.416;2023-05-06T11:48:36;11.25;;;3.08;;
33150;SDS011;19508;42.578;23.416;2023-05-06T11:51:01;6.00;;;2.78;;
33150;SDS011;19508;42.578;23.416;2023-05-06T11:53:27;7.45;;;3.58;;
33150;SDS011;19508;42.578;23.416;2023-05-06T11:55:53;12.68;;;3.13;;
33150;SDS011;19508;42.578;23.416;2023-05-06T11:58:28;4.03;;;2.80;;
33150;SDS011;19508;42.578;23.416;2023-05-06T12:01:00;9.48;;;4.65;;
33150;SDS011;19508;42.578;23.416;2023-05-06T12:03:28;9.32;;;3.50;;
33150;SDS011;19508;42.578;23.416;2023-05-06T12:05:55;6.82;;;3.30;;
33150;SDS011;19508;42.578;23.416;2023-05-06T12:08:21;5.22;;;3.10;;
33150;SDS011;19508;42.578;23.416;2023-05-06T12:10:52;4.50;;;2.78;;
33150;SDS011;19508;42.578;23.416;2023-05-06T12:13:20;5.60;;;2.80;;
33150;SDS011;19508;42.578;23.416;2023-05-06T12:15:45;4.55;;;2.67;;
33150;SDS011;19508;42.578;23.416;2023-05-06T12:18:13;6.45;;;3.42;;
33150;SDS011;19508;42.578;23.416;2023-05-06T12:20:40;4.03;;;2.90;;
33150;SDS011;19508;42.578;23.416;2023-05-06T12:23:06;5.47;;;3.00;;
33150;SDS011;19508;42.578;23.416;2023-05-06T12:25:32;4.80;;;2.60;;
33150;SDS011;19508;42.578;23.416;2023-05-06T12:27:58;6.40;;;3.08;;
33150;SDS011;19508;42.578;23.416;2023-05-06T12:30:30;7.70;;;2.95;;
33150;SDS011;19508;42.578;23.416;2023-05-06T12:32:56;9.93;;;2.50;;
33150;SDS011;19508;42.578;23.416;2023-05-06T12:35:23;4.25;;;2.58;;
33150;SDS011;19508;42.578;23.416;2023-05-06T12:37:52;6.88;;;2.78;;
33150;SDS011;19508;42.578;23.416;2023-05-06T12:40:18;4.47;;;2.47;;
33150;SDS011;19508;42.578;23.416;2023-05-06T12:42:43;6.40;;;3.08;;
33150;SDS011;19508;42.578;23.416;2023-05-06T12:45:12;7.10;;;3.35;;
33150;SDS011;19508;42.578;23.416;2023-05-06T12:47:38;8.05;;;3.75;;
33150;SDS011;19508;42.578;23.416;2023-05-06T12:50:04;12.23;;;4.30;;
33150;SDS011;19508;42.578;23.416;2023-05-06T12:52:29;5.60;;;3.45;;
33150;SDS011;19508;42.578;23.416;2023-05-06T12:54:55;10.75;;;4.30;;
33150;SDS011;19508;42.578;23.416;2023-05-06T12:57:21;10.52;;;4.05;;
33150;SDS011;19508;42.578;23.416;2023-05-06T12:59:47;5.20;;;2.95;;
33150;SDS011;19508;42.578;23.416;2023-05-06T13:02:13;6.75;;;2.85;;
33150;SDS011;19508;42.578;23.416;2023-05-06T13:04:39;8.20;;;3.83;;
33150;SDS011;19508;42.578;23.416;2023-05-06T13:07:05;4.63;;;2.88;;
33150;SDS011;19508;42.578;23.416;2023-05-06T13:09:31;9.32;;;3.22;;
33150;SDS011;19508;42.578;23.416;2023-05-06T13:11:57;14.82;;;3.45;;
33150;SDS011;19508;42.578;23.416;2023-05-06T13:14:23;6.82;;;2.83;;
33150;SDS011;19508;42.578;23.416;2023-05-06T13:16:48;10.10;;;3.00;;
33150;SDS011;19508;42.578;23.416;2023-05-06T13:19:14;4.63;;;2.75;;
33150;SDS011;19508;42.578;23.416;2023-05-06T13:21:39;5.35;;;2.40;;
33150;SDS011;19508;42.578;23.416;2023-05-06T13:24:05;5.90;;;3.30;;
33150;SDS011;19508;42.578;23.416;2023-05-06T13:26:35;5.47;;;3.28;;
33150;SDS011;19508;42.578;23.416;2023-05-06T13:29:01;4.88;;;3.05;;
33150;SDS011;19508;42.578;23.416;2023-05-06T13:31:27;6.10;;;2.47;;
33150;SDS011;19508;42.578;23.416;2023-05-06T13:33:53;13.63;;;2.67;;
33150;SDS011;19508;42.578;23.416;2023-05-06T13:36:23;7.80;;;3.03;;
33150;SDS011;19508;42.578;23.416;2023-05-06T13:38:48;9.70;;;3.10;;
33150;SDS011;19508;42.578;23.416;2023-05-06T13:41:14;8.05;;;2.70;;
33150;SDS011;19508;42.578;23.416;2023-05-06T13:43:40;4.03;;;2.40;;
33150;SDS011;19508;42.578;23.416;2023-05-06T13:46:06;7.10;;;2.58;;
33150;SDS011;19508;42.578;23.416;2023-05-06T13:48:32;7.95;;;3.05;;
33150;SDS011;19508;42.578;23.416;2023-05-06T13:50:58;23.73;;;7.18;;
33150;SDS011;19508;42.578;23.416;2023-05-06T13:53:23;17.90;;;6.13;;
33150;SDS011;19508;42.578;23.416;2023-05-06T13:55:48;43.35;;;14.98;;
33150;SDS011;19508;42.578;23.416;2023-05-06T13:58:14;11.00;;;5.07;;
33150;SDS011;19508;42.578;23.416;2023-05-06T14:00:41;11.52;;;3.58;;
33150;SDS011;19508;42.578;23.416;2023-05-06T14:03:06;12.30;;;5.82;;
33150;SDS011;19508;42.578;23.416;2023-05-06T14:05:31;35.17;;;13.10;;
33150;SDS011;19508;42.578;23.416;2023-05-06T14:07:57;22.95;;;7.57;;
33150;SDS011;19508;42.578;23.416;2023-05-06T14:10:22;17.35;;;8.35;;
33150;SDS011;19508;42.578;23.416;2023-05-06T14:12:47;9.18;;;4.72;;
33150;SDS011;19508;42.578;23.416;2023-05-06T14:15:13;43.20;;;15.77;;
33150;SDS011;19508;42.578;23.416;2023-05-06T14:17:42;14.70;;;8.02;;
33150;SDS011;19508;42.578;23.416;2023-05-06T14:20:07;17.42;;;8.55;;
33150;SDS011;19508;42.578;23.416;2023-05-06T14:22:34;6.85;;;3.80;;
33150;SDS011;19508;42.578;23.416;2023-05-06T14:25:00;7.10;;;2.90;;
33150;SDS011;19508;42.578;23.416;2023-05-06T14:27:26;7.10;;;2.20;;
33150;SDS011;19508;42.578;23.416;2023-05-06T14:29:51;4.97;;;2.50;;
33150;SDS011;19508;42.578;23.416;2023-05-06T14:32:17;6.38;;;3.00;;
33150;SDS011;19508;42.578;23.416;2023-05-06T14:34:42;5.72;;;3.40;;
33150;SDS011;19508;42.578;23.416;2023-05-06T14:37:07;8.85;;;4.05;;
33150;SDS011;19508;42.578;23.416;2023-05-06T14:39:33;7.47;;;2.97;;
33150;SDS011;19508;42.578;23.416;2023-05-06T14:41:58;4.65;;;2.70;;
33150;SDS011;19508;42.578;23.416;2023-05-06T14:44:24;6.47;;;2.97;;